Time;durP1;ratioP1;P1;durP2;ratioP2;P2;SDS_P1;SDS_P2;PMS_P1;PMS_P2;Temp;Humidity;BMP_temperature;BMP_pressure;BME280_temperature;BME280_humidity;BME280_pressure;Samples;Min_cycle;Max_cycle;Signal;HPM_P1;HPM_P2
2023/07/11 00:00:03;;;;;;;;;;;23.20;62.10;;;;;;8328241;28;19920;-71
2023/07/11 00:04:04;;;;;;;;;;;23.20;62.10;;;;;;8326721;28;19952;-71
2023/07/11 00:08:05;;;;;;;;;;;23.20;62.00;;;;;;8310365;28;19913;-71
2023/07/11 00:12:06;;;;;;;;;;;23.10;61.90;;;;;;8327817;28;19905;-71
2023/07/11 00:16:09;;;;;;;;;;;23.10;62.00;;;;;;8327502;28;19913;-71
2023/07/11 00:20:11;;;;;;;;;;;23.10;61.90;;;;;;8326732;28;19928;-71
2023/07/11 00:24:12;;;;;;;;;;;23.10;61.90;;;;;;8328057;28;19913;-71
2023/07/11 00:28:13;;;;;;;;;;;23.10;62.00;;;;;;8327476;28;19920;-71
2023/07/11 00:32:13;;;;;;;;;;;23.10;62.00;;;;;;8327262;28;20320;-71
2023/07/11 00:36:14;;;;;;;;;;;23.10;62.00;;;;;;8327092;28;20358;-71
2023/07/11 00:40:14;;;;;;;;;;;23.10;62.00;;;;;;8293281;28;19909;-71
2023/07/11 00:44:16;;;;;;;;;;;23.10;61.90;;;;;;8327618;28;20000;-71
2023/07/11 00:48:17;;;;;;;;;;;23.10;61.90;;;;;;8309661;28;19909;-71
2023/07/11 00:52:18;;;;;;;;;;;23.10;61.90;;;;;;8326853;28;20357;-71
2023/07/11 00:56:21;;;;;;;;;;;23.10;61.90;;;;;;8326718;28;19940;-71
2023/07/11 01:00:22;;;;;;;;;;;23.10;61.80;;;;;;8327031;28;20425;-71
2023/07/11 01:04:23;;;;;;;;;;;23.10;61.80;;;;;;8325377;28;19909;-71
2023/07/11 01:08:24;;;;;;;;;;;23.10;61.80;;;;;;8327202;28;19909;-71
2023/07/11 01:12:24;;;;;;;;;;;23.10;61.80;;;;;;8309220;28;19908;-71
2023/07/11 01:16:25;;;;;;;;;;;23.10;61.70;;;;;;8281847;28;19924;-71
2023/07/11 01:20:25;;;;;;;;;;;23.10;61.70;;;;;;8294065;28;19909;-71
2023/07/11 01:24:26;;;;;;;;;;;23.10;61.70;;;;;;8294249;28;19905;-71
2023/07/11 01:28:27;;;;;;;;;;;23.10;61.70;;;;;;8276036;28;19925;-71
2023/07/11 01:32:27;;;;;;;;;;;23.10;61.60;;;;;;8297360;28;19917;-72
2023/07/11 01:36:28;;;;;;;;;;;23.10;61.60;;;;;;8299678;28;19959;-71
2023/07/11 01:40:28;;;;;;;;;;;23.10;61.60;;;;;;8299731;28;19913;-71
2023/07/11 01:44:30;;;;;;;;;;;23.10;61.50;;;;;;8282325;28;19909;-71
2023/07/11 01:48:30;;;;;;;;;;;23.10;61.60;;;;;;8299577;28;19910;-71
2023/07/11 01:52:31;;;;;;;;;;;23.10;61.60;;;;;;8281590;28;20402;-71
2023/07/11 01:56:32;;;;;;;;;;;23.10;61.60;;;;;;8299482;28;19913;-71
2023/07/11 02:00:32;;;;;;;;;;;23.10;61.60;;;;;;8299505;28;19964;-71
2023/07/11 02:04:33;;;;;;;;;;;23.10;61.60;;;;;;8299285;28;19991;-71
2023/07/11 02:08:34;;;;;;;;;;;23.10;61.60;;;;;;8298978;28;20333;-71
2023/07/11 02:12:34;;;;;;;;;;;23.10;61.60;;;;;;8298752;28;19910;-71
2023/07/11 02:16:35;;;;;;;;;;;23.10;61.50;;;;;;8325839;28;20354;-71
2023/07/11 02:20:43;;;;;;;;;;;23.10;61.50;;;;;;8330306;28;20354;-71
2023/07/11 02:24:44;;;;;;;;;;;23.10;61.50;;;;;;8331475;28;20285;-71
2023/07/11 02:28:44;;;;;;;;;;;23.10;61.50;;;;;;8329817;28;19983;-71
2023/07/11 02:32:45;;;;;;;;;;;23.10;61.50;;;;;;8331195;28;19909;-71
2023/07/11 02:36:45;;;;;;;;;;;23.10;61.40;;;;;;8316368;28;19910;-71
2023/07/11 02:40:46;;;;;;;;;;;23.10;61.40;;;;;;8298253;28;20133;-71
2023/07/11 02:44:46;;;;;;;;;;;23.10;61.40;;;;;;8296904;28;19971;-71
2023/07/11 02:48:47;;;;;;;;;;;23.10;61.40;;;;;;8297737;28;19920;-71
2023/07/11 02:52:48;;;;;;;;;;;23.10;61.40;;;;;;8297808;28;19940;-71
2023/07/11 02:56:48;;;;;;;;;;;23.10;61.40;;;;;;8280600;28;20014;-71
2023/07/11 03:00:50;;;;;;;;;;;23.10;61.40;;;;;;8298386;28;19948;-71
2023/07/11 03:04:51;;;;;;;;;;;23.10;61.40;;;;;;8264603;28;19917;-71
2023/07/11 03:08:52;;;;;;;;;;;23.10;61.40;;;;;;8312643;28;20008;-71
2023/07/11 03:12:52;;;;;;;;;;;23.10;61.50;;;;;;8330650;28;19916;-71
2023/07/11 03:16:53;;;;;;;;;;;23.00;61.40;;;;;;8313354;28;19927;-71
2023/07/11 03:20:56;;;;;;;;;;;23.10;61.40;;;;;;8330527;28;19917;-71
2023/07/11 03:24:56;;;;;;;;;;;23.10;61.40;;;;;;8330582;28;19909;-71
2023/07/11 03:28:57;;;;;;;;;;;23.10;61.40;;;;;;8312889;28;19921;-71
2023/07/11 03:32:58;;;;;;;;;;;23.10;61.40;;;;;;8296356;28;19909;-71
2023/07/11 03:36:58;;;;;;;;;;;23.10;61.40;;;;;;8329670;28;20031;-71
2023/07/11 03:40:59;;;;;;;;;;;23.10;61.30;;;;;;8332447;28;19945;-71
2023/07/11 03:44:59;;;;;;;;;;;23.10;61.30;;;;;;8334886;28;20386;-71
2023/07/11 03:49:00;;;;;;;;;;;23.10;61.30;;;;;;8337112;28;19920;-71
2023/07/11 03:53:01;;;;;;;;;;;23.10;61.40;;;;;;8333735;28;19909;-71
2023/07/11 03:57:02;;;;;;;;;;;23.10;61.30;;;;;;8335283;28;19913;-71
2023/07/11 04:01:02;;;;;;;;;;;23.10;61.30;;;;;;8329503;28;20370;-71
2023/07/11 04:05:03;;;;;;;;;;;23.10;61.30;;;;;;8330697;28;19909;-71
2023/07/11 04:09:03;;;;;;;;;;;23.10;61.30;;;;;;8327367;28;20420;-71
2023/07/11 04:13:04;;;;;;;;;;;23.10;61.30;;;;;;8328320;28;19991;-71
2023/07/11 04:17:05;;;;;;;;;;;23.10;61.30;;;;;;8327314;28;20402;-71
2023/07/11 04:21:05;;;;;;;;;;;23.10;62.20;;;;;;8327734;28;19909;-71
2023/07/11 04:25:06;;;;;;;;;;;23.10;61.30;;;;;;8326756;28;19912;-71
2023/07/11 04:29:06;;;;;;;;;;;23.00;61.30;;;;;;8327643;28;19909;-71
2023/07/11 04:33:07;;;;;;;;;;;23.10;62.10;;;;;;8327912;28;19913;-71
2023/07/11 04:37:07;;;;;;;;;;;23.00;61.20;;;;;;8327669;28;19916;-71
2023/07/11 04:41:09;;;;;;;;;;;23.10;61.30;;;;;;8328217;28;19909;-71
2023/07/11 04:45:09;;;;;;;;;;;23.00;61.20;;;;;;8327879;28;19992;-72
2023/07/11 04:49:10;;;;;;;;;;;23.10;61.30;;;;;;8327719;28;19917;-71
2023/07/11 04:53:11;;;;;;;;;;;23.10;61.30;;;;;;8327512;28;19909;-71
2023/07/11 04:57:11;;;;;;;;;;;23.10;61.20;;;;;;8327252;28;19940;-71
2023/07/11 05:01:13;;;;;;;;;;;23.00;61.10;;;;;;8327183;28;19923;-71
2023/07/11 05:05:14;;;;;;;;;;;23.10;61.20;;;;;;8327082;28;19912;-71
2023/07/11 05:09:17;;;;;;;;;;;23.10;61.20;;;;;;8333051;28;19985;-72
2023/07/11 05:13:18;;;;;;;;;;;23.10;61.20;;;;;;8333383;28;19909;-71
2023/07/11 05:17:18;;;;;;;;;;;23.10;61.20;;;;;;8333686;28;20020;-71
2023/07/11 05:21:19;;;;;;;;;;;23.10;61.20;;;;;;8332861;28;19909;-71
2023/07/11 05:25:19;;;;;;;;;;;23.10;61.50;;;;;;8333037;28;20290;-71
2023/07/11 05:29:20;;;;;;;;;;;23.10;61.10;;;;;;8332749;28;20275;-71
2023/07/11 05:33:21;;;;;;;;;;;23.10;61.20;;;;;;8332681;28;20314;-71
2023/07/11 05:37:21;;;;;;;;;;;23.00;61.10;;;;;;8332504;28;20169;-71
2023/07/11 05:41:22;;;;;;;;;;;23.00;61.20;;;;;;8332412;28;20437;-71
2023/07/11 05:45:23;;;;;;;;;;;23.10;61.30;;;;;;8332444;28;20294;-71
2023/07/11 05:49:23;;;;;;;;;;;23.00;61.20;;;;;;8332294;28;19952;-71
2023/07/11 05:53:24;;;;;;;;;;;23.00;61.10;;;;;;8332562;28;19959;-71
2023/07/11 05:57:24;;;;;;;;;;;23.00;61.20;;;;;;8332267;28;19905;-71
2023/07/11 06:01:26;;;;;;;;;;;23.10;61.10;;;;;;8314405;28;19959;-71
2023/07/11 06:05:27;;;;;;;;;;;23.10;61.10;;;;;;8330435;28;19905;-71
2023/07/11 06:09:27;;;;;;;;;;;23.00;61.10;;;;;;8314095;28;19913;-71
2023/07/11 06:13:29;;;;;;;;;;;23.00;61.10;;;;;;8331332;28;19917;-71
2023/07/11 06:17:29;;;;;;;;;;;23.00;61.10;;;;;;8331502;28;19948;-71
2023/07/11 06:21:30;;;;;;;;;;;23.10;61.10;;;;;;8331497;28;19909;-71
2023/07/11 06:25:31;;;;;;;;;;;23.00;61.00;;;;;;8313827;28;19912;-71
2023/07/11 06:29:31;;;;;;;;;;;23.00;61.10;;;;;;8331418;28;20294;-71
2023/07/11 06:33:32;;;;;;;;;;;23.10;61.10;;;;;;8313182;28;19974;-71
2023/07/11 06:37:32;;;;;;;;;;;23.10;61.10;;;;;;8330470;28;19920;-71
2023/07/11 06:41:34;;;;;;;;;;;23.00;61.00;;;;;;8313439;28;19909;-71
2023/07/11 06:45:35;;;;;;;;;;;23.10;61.10;;;;;;8330650;28;20160;-71
2023/07/11 06:49:35;;;;;;;;;;;23.10;61.10;;;;;;8312393;28;19968;-71
2023/07/11 06:53:36;;;;;;;;;;;23.00;61.10;;;;;;8330790;28;19905;-71
2023/07/11 06:57:37;;;;;;;;;;;23.00;61.10;;;;;;8330731;28;19909;-71
2023/07/11 07:01:37;;;;;;;;;;;23.00;61.00;;;;;;8312465;28;20237;-71
2023/07/11 07:05:38;;;;;;;;;;;23.00;61.10;;;;;;8312385;28;19916;-71
2023/07/11 07:09:39;;;;;;;;;;;23.00;61.00;;;;;;8330118;28;19951;-71
2023/07/11 07:13:39;;;;;;;;;;;23.00;61.00;;;;;;8329807;28;20019;-71
2023/07/11 07:17:41;;;;;;;;;;;23.00;61.00;;;;;;8312042;28;19909;-71
2023/07/11 07:21:41;;;;;;;;;;;23.10;61.00;;;;;;8328052;28;19968;-71
2023/07/11 07:25:49;;;;;;;;;;;23.10;61.00;;;;;;8329408;28;19972;-71
2023/07/11 07:29:50;;;;;;;;;;;23.00;60.90;;;;;;8327534;28;20374;-71
2023/07/11 07:33:50;;;;;;;;;;;23.00;61.70;;;;;;8329214;28;20294;-71
2023/07/11 07:37:51;;;;;;;;;;;23.10;61.00;;;;;;8328656;28;19913;-71
2023/07/11 07:41:51;;;;;;;;;;;23.10;61.00;;;;;;8329062;28;20433;-71
2023/07/11 07:45:53;;;;;;;;;;;23.10;60.90;;;;;;8311145;28;19952;-71
2023/07/11 07:49:55;;;;;;;;;;;23.10;60.90;;;;;;8328735;28;20440;-71
2023/07/11 07:53:55;;;;;;;;;;;23.10;60.90;;;;;;8311829;28;19909;-71
2023/07/11 07:57:56;;;;;;;;;;;23.10;60.90;;;;;;8328386;28;20358;-71
2023/07/11 08:01:56;;;;;;;;;;;23.00;60.90;;;;;;8294208;28;20298;-71
2023/07/11 08:05:58;;;;;;;;;;;23.00;61.00;;;;;;8328011;28;19932;-71
2023/07/11 08:09:59;;;;;;;;;;;23.00;61.00;;;;;;8328608;28;20367;-71
2023/07/11 08:13:59;;;;;;;;;;;23.00;61.00;;;;;;8327850;28;19943;-71
2023/07/11 08:18:00;;;;;;;;;;;23.00;60.90;;;;;;8326823;28;19940;-71
2023/07/11 08:22:00;;;;;;;;;;;23.00;60.90;;;;;;8327676;28;20353;-71
2023/07/11 08:26:01;;;;;;;;;;;23.10;61.00;;;;;;8327576;28;19975;-71
2023/07/11 08:30:02;;;;;;;;;;;23.10;61.00;;;;;;8327463;28;19913;-71
2023/07/11 08:34:03;;;;;;;;;;;23.00;60.80;;;;;;8327455;28;20413;-71
2023/07/11 08:38:10;;;;;;;;;;;23.10;60.90;;;;;;8327481;28;20590;-71
2023/07/11 08:42:30;;;;;;;;;;;23.10;60.90;;;;;;8326589;28;19910;-71
2023/07/11 08:46:36;;;;;;;;;;;23.10;60.90;;;;;;8327156;28;19909;-71
2023/07/11 08:50:40;;;;;;;;;;;23.10;60.80;;;;;;8327020;28;20588;-71
2023/07/11 08:55:19;;;;;;;;;;;23.10;60.90;;;;;;8327695;28;20302;-71
2023/07/11 08:59:20;;;;;;;;;;;23.10;60.80;;;;;;8193510;29;19907;-71
2023/07/11 09:03:27;;;;;;;;;;;23.10;60.80;;;;;;8255617;28;20347;-71
2023/07/11 09:07:38;;;;;;;;;;;23.10;60.80;;;;;;8326702;28;20358;-71
2023/07/11 09:11:53;;;;;;;;;;;23.10;60.80;;;;;;8326775;28;19905;-71
2023/07/11 09:16:03;;;;;;;;;;;23.10;60.80;;;;;;8326917;28;19917;-71
2023/07/11 09:20:22;;;;;;;;;;;23.10;60.90;;;;;;8326381;28;20289;-71
2023/07/11 09:24:31;;;;;;;;;;;23.00;60.90;;;;;;8326654;28;20392;-71
2023/07/11 09:28:33;;;;;;;;;;;23.10;61.00;;;;;;8326349;28;19916;-71
2023/07/11 09:32:34;;;;;;;;;;;23.10;60.90;;;;;;8309418;28;19909;-71
2023/07/11 09:36:37;;;;;;;;;;;23.00;60.80;;;;;;8326297;28;19949;-71
2023/07/11 09:40:48;;;;;;;;;;;23.10;60.80;;;;;;8326467;28;19909;-71
2023/07/11 09:44:59;;;;;;;;;;;23.10;60.80;;;;;;8326336;28;19912;-71
2023/07/11 09:49:00;;;;;;;;;;;23.10;60.80;;;;;;8326237;28;19915;-71
2023/07/11 09:53:01;;;;;;;;;;;23.10;60.80;;;;;;8328535;28;19944;-71
2023/07/11 09:57:09;;;;;;;;;;;23.10;60.80;;;;;;8332219;28;19912;-71
2023/07/11 10:01:15;;;;;;;;;;;23.10;60.80;;;;;;8332124;28;19913;-71
2023/07/11 10:05:17;;;;;;;;;;;23.10;60.80;;;;;;8313664;28;19905;-71
2023/07/11 10:09:22;;;;;;;;;;;23.10;60.80;;;;;;8331947;28;19912;-71
2023/07/11 10:13:22;;;;;;;;;;;23.10;60.80;;;;;;8331575;28;19912;-71
2023/07/11 10:17:28;;;;;;;;;;;23.10;60.80;;;;;;8331499;28;19917;-71
2023/07/11 10:21:31;;;;;;;;;;;23.10;60.80;;;;;;8330158;28;19959;-71
2023/07/11 10:25:31;;;;;;;;;;;23.10;60.80;;;;;;8331372;28;19912;-71
2023/07/11 10:29:49;;;;;;;;;;;23.10;60.80;;;;;;8331013;28;20178;-71
2023/07/11 10:33:52;;;;;;;;;;;23.10;60.80;;;;;;8297208;28;19905;-71
2023/07/11 10:37:55;;;;;;;;;;;23.00;60.80;;;;;;8331393;28;19905;-71
2023/07/11 10:42:25;;;;;;;;;;;23.00;60.80;;;;;;8330744;28;19933;-71
2023/07/11 10:46:33;;;;;;;;;;;23.00;60.80;;;;;;8259929;28;19912;-71
2023/07/11 10:50:45;;;;;;;;;;;23.10;60.80;;;;;;8330393;28;20314;-71
2023/07/11 10:54:59;;;;;;;;;;;23.10;60.90;;;;;;8331045;28;19905;-71
2023/07/11 10:59:00;;;;;;;;;;;23.10;60.80;;;;;;8330412;28;20294;-71
2023/07/11 11:03:12;;;;;;;;;;;23.10;60.80;;;;;;8330543;28;19909;-71
2023/07/11 11:07:18;;;;;;;;;;;23.10;60.80;;;;;;8329894;28;19932;-71
2023/07/11 11:11:38;;;;;;;;;;;23.10;60.70;;;;;;8312968;28;19998;-71
2023/07/11 11:15:45;;;;;;;;;;;23.10;60.70;;;;;;8330831;28;20007;-71
2023/07/11 11:19:51;;;;;;;;;;;23.10;60.70;;;;;;8330985;28;20421;-71
2023/07/11 11:23:58;;;;;;;;;;;23.10;60.70;;;;;;8330770;28;19947;-71
2023/07/11 11:28:17;;;;;;;;;;;23.10;60.70;;;;;;8330359;28;19909;-71
2023/07/11 11:32:32;;;;;;;;;;;23.10;60.70;;;;;;8330613;28;19992;-71
2023/07/11 11:36:45;;;;;;;;;;;23.10;60.70;;;;;;8330303;28;20036;-71
2023/07/11 11:40:49;;;;;;;;;;;23.10;60.60;;;;;;8330191;28;19905;-71
2023/07/11 11:44:55;;;;;;;;;;;23.10;60.70;;;;;;8330309;28;19909;-71
2023/07/11 11:49:00;;;;;;;;;;;23.10;60.70;;;;;;8330669;28;19921;-71
2023/07/11 11:53:15;;;;;;;;;;;23.10;60.70;;;;;;8334251;28;19905;-71
2023/07/11 11:57:19;;;;;;;;;;;23.10;60.70;;;;;;8336032;28;19909;-71
2023/07/11 12:01:31;;;;;;;;;;;23.10;60.70;;;;;;8333713;28;19911;-71
2023/07/11 12:05:32;;;;;;;;;;;23.10;60.70;;;;;;8336448;28;19909;-71
2023/07/11 12:09:33;;;;;;;;;;;23.10;60.60;;;;;;8330687;28;20448;-71
2023/07/11 12:13:43;;;;;;;;;;;23.10;60.60;;;;;;8330978;28;19909;-71
2023/07/11 12:17:44;;;;;;;;;;;23.10;60.60;;;;;;8328220;28;20370;-71
2023/07/11 12:21:45;;;;;;;;;;;23.10;60.50;;;;;;8327920;28;19913;-71
2023/07/11 12:26:04;;;;;;;;;;;23.10;60.50;;;;;;8328209;28;19916;-71
2023/07/11 12:30:14;;;;;;;;;;;23.10;60.50;;;;;;8327730;28;19920;-71
2023/07/11 12:34:14;;;;;;;;;;;23.10;60.50;;;;;;8326491;28;19905;-71
2023/07/11 12:38:20;;;;;;;;;;;23.10;60.50;;;;;;8325869;28;19909;-71
2023/07/11 12:42:24;;;;;;;;;;;23.10;60.50;;;;;;8327878;28;20314;-72
2023/07/11 12:46:27;;;;;;;;;;;23.10;60.50;;;;;;8327777;28;20377;-71
2023/07/11 12:50:32;;;;;;;;;;;23.10;60.50;;;;;;8327312;28;20603;-71
2023/07/11 12:54:34;;;;;;;;;;;23.10;60.40;;;;;;8327924;28;19951;-71
2023/07/11 12:58:34;;;;;;;;;;;23.10;60.50;;;;;;8327669;28;19916;-71
2023/07/11 13:02:35;;;;;;;;;;;23.10;60.40;;;;;;8327507;28;20004;-71
2023/07/11 13:06:37;;;;;;;;;;;23.10;60.40;;;;;;8327047;28;19905;-71
2023/07/11 13:10:37;;;;;;;;;;;23.10;60.40;;;;;;8326520;28;19919;-71
2023/07/11 13:14:40;;;;;;;;;;;23.10;60.50;;;;;;8326386;28;19917;-71
2023/07/11 13:18:42;;;;;;;;;;;23.30;60.60;;;;;;8326729;28;19958;-71
2023/07/11 13:22:43;;;;;;;;;;;23.30;60.30;;;;;;8325154;28;19904;-71
2023/07/11 13:26:43;;;;;;;;;;;23.30;60.10;;;;;;8326884;28;20388;-71
2023/07/11 13:30:44;;;;;;;;;;;23.30;60.00;;;;;;8332840;28;19940;-71
2023/07/11 13:34:46;;;;;;;;;;;23.30;60.00;;;;;;8332818;28;19951;-71
2023/07/11 13:38:50;;;;;;;;;;;23.30;60.00;;;;;;8332872;28;19913;-71
2023/07/11 13:42:51;;;;;;;;;;;23.30;60.00;;;;;;8332742;28;20243;-71
2023/07/11 13:46:52;;;;;;;;;;;23.30;60.00;;;;;;8332445;28;20213;-71
2023/07/11 13:51:06;;;;;;;;;;;23.30;60.00;;;;;;8314410;28;19905;-71
2023/07/11 13:55:12;;;;;;;;;;;23.30;60.00;;;;;;8332277;28;19919;-71
2023/07/11 13:59:13;;;;;;;;;;;23.30;60.00;;;;;;8314437;28;20354;-71
2023/07/11 14:03:15;;;;;;;;;;;23.30;60.00;;;;;;8332161;28;20290;-71
2023/07/11 14:07:16;;;;;;;;;;;23.30;59.90;;;;;;8331984;28;19909;-71
2023/07/11 14:11:23;;;;;;;;;;;23.30;60.00;;;;;;8331988;28;20426;-71
2023/07/11 14:15:24;;;;;;;;;;;23.30;60.10;;;;;;8331590;28;19917;-71
2023/07/11 14:19:30;;;;;;;;;;;23.30;60.00;;;;;;8331417;28;20406;-71
2023/07/11 14:23:31;;;;;;;;;;;23.30;60.00;;;;;;8332077;28;19965;-71
2023/07/11 14:27:31;;;;;;;;;;;23.30;60.10;;;;;;8331261;28;19917;-71
2023/07/11 14:31:32;;;;;;;;;;;23.30;60.20;;;;;;8331224;28;19996;-71
2023/07/11 14:35:32;;;;;;;;;;;23.30;60.00;;;;;;8313568;28;19909;-71
2023/07/11 14:39:33;;;;;;;;;;;23.30;60.00;;;;;;8329398;28;20020;-71
2023/07/11 14:43:33;;;;;;;;;;;23.30;60.00;;;;;;8329630;28;19913;-71
2023/07/11 14:47:34;;;;;;;;;;;23.30;60.00;;;;;;8330581;28;20366;-71
2023/07/11 14:51:35;;;;;;;;;;;23.30;60.00;;;;;;8330553;28;19913;-71
2023/07/11 14:55:36;;;;;;;;;;;23.30;60.00;;;;;;8330458;28;20406;-71
2023/07/11 14:59:37;;;;;;;;;;;23.30;60.10;;;;;;8330231;28;20322;-71
2023/07/11 15:03:37;;;;;;;;;;;23.30;60.10;;;;;;8329988;28;19909;-71
2023/07/11 15:07:38;;;;;;;;;;;23.30;60.10;;;;;;8312193;28;19913;-71
2023/07/11 15:11:39;;;;;;;;;;;23.30;60.00;;;;;;8329823;28;20464;-72
2023/07/11 15:15:40;;;;;;;;;;;23.30;60.10;;;;;;8329626;28;20363;-71
2023/07/11 15:19:40;;;;;;;;;;;23.30;60.20;;;;;;8311944;28;20321;-71
2023/07/11 15:23:41;;;;;;;;;;;23.30;60.10;;;;;;8329588;28;19915;-71
2023/07/11 15:27:41;;;;;;;;;;;23.30;60.10;;;;;;8330146;28;20286;-71
2023/07/11 15:31:43;;;;;;;;;;;23.30;60.20;;;;;;8329512;28;20008;-71
2023/07/11 15:35:44;;;;;;;;;;;23.30;60.20;;;;;;8311610;28;19913;-71
2023/07/11 15:39:44;;;;;;;;;;;23.20;60.10;;;;;;8329068;28;19913;-71
2023/07/11 15:43:45;;;;;;;;;;;23.20;60.10;;;;;;8329521;28;19920;-71
2023/07/11 15:47:45;;;;;;;;;;;23.20;60.10;;;;;;8328616;28;20285;-71
2023/07/11 15:51:46;;;;;;;;;;;23.20;60.10;;;;;;8328267;28;20390;-71
2023/07/11 15:55:47;;;;;;;;;;;23.20;60.20;;;;;;8327258;28;19936;-71
2023/07/11 15:59:48;;;;;;;;;;;23.30;60.20;;;;;;8328571;28;19909;-72
2023/07/11 16:03:48;;;;;;;;;;;23.30;60.20;;;;;;8328478;28;19905;-72
2023/07/11 16:07:49;;;;;;;;;;;23.20;60.10;;;;;;8310333;28;19919;-71
2023/07/11 16:11:50;;;;;;;;;;;23.30;60.20;;;;;;8328015;28;19959;-72
2023/07/11 16:15:52;;;;;;;;;;;23.30;60.20;;;;;;8327781;28;19912;-72
2023/07/11 16:19:52;;;;;;;;;;;23.30;60.30;;;;;;8327931;28;20418;-72
2023/07/11 16:23:53;;;;;;;;;;;23.30;60.30;;;;;;8310947;28;20335;-72
2023/07/11 16:27:54;;;;;;;;;;;23.40;60.70;;;;;;8295747;28;19920;-71
2023/07/11 16:31:55;;;;;;;;;;;23.40;60.70;;;;;;8295067;28;20011;-72
2023/07/11 16:35:57;;;;;;;;;;;23.40;60.80;;;;;;8318947;28;19905;-71
2023/07/11 16:39:58;;;;;;;;;;;23.40;60.80;;;;;;8312212;28;19905;-72
2023/07/11 16:43:58;;;;;;;;;;;23.40;60.90;;;;;;8327173;28;20437;-72
2023/07/11 16:47:59;;;;;;;;;;;23.40;61.10;;;;;;8309620;28;20294;-72
2023/07/11 16:51:59;;;;;;;;;;;23.40;61.00;;;;;;8303770;28;19968;-71
2023/07/11 16:56:00;;;;;;;;;;;23.50;60.80;;;;;;8294456;28;19917;-72
2023/07/11 17:00:01;;;;;;;;;;;23.50;60.90;;;;;;8311031;28;19912;-72
2023/07/11 17:04:02;;;;;;;;;;;23.40;61.00;;;;;;8364513;28;20015;-72
2023/07/11 17:08:09;;;;;;;;;;;23.50;61.60;;;;;;8340309;28;19923;-72
2023/07/11 17:12:10;;;;;;;;;;;23.50;62.60;;;;;;8332236;28;19958;-72
2023/07/11 17:16:11;;;;;;;;;;;23.50;63.60;;;;;;8326099;28;19975;-72
2023/07/11 17:20:20;;;;;;;;;;;23.50;63.80;;;;;;8325419;28;20362;-72
2023/07/11 17:24:23;;;;;;;;;;;23.50;63.60;;;;;;8327295;28;19909;-72
2023/07/11 17:28:26;;;;;;;;;;;23.50;63.80;;;;;;8324386;28;20349;-72
2023/07/11 17:32:28;;;;;;;;;;;23.50;63.80;;;;;;8324897;28;19913;-72
2023/07/11 17:36:29;;;;;;;;;;;23.50;64.20;;;;;;8325856;28;19925;-72
2023/07/11 17:40:29;;;;;;;;;;;23.60;63.80;;;;;;8323125;28;19912;-72
2023/07/11 17:44:30;;;;;;;;;;;23.70;64.20;;;;;;8305049;28;20255;-72
2023/07/11 17:48:31;;;;;;;;;;;23.70;63.80;;;;;;8323146;28;19925;-71
2023/07/11 17:52:31;;;;;;;;;;;23.70;64.30;;;;;;8322755;28;19909;-72
2023/07/11 17:56:32;;;;;;;;;;;23.70;64.40;;;;;;8320703;28;20378;-72
2023/07/11 18:00:33;;;;;;;;;;;23.70;64.30;;;;;;8321782;28;20502;-72
2023/07/11 18:04:34;;;;;;;;;;;23.70;64.10;;;;;;8322111;28;19916;-72
2023/07/11 18:08:35;;;;;;;;;;;23.70;63.70;;;;;;8321584;28;19991;-72
2023/07/11 18:12:35;;;;;;;;;;;23.70;63.70;;;;;;8328789;28;20200;-72
2023/07/11 18:16:36;;;;;;;;;;;23.70;63.90;;;;;;8323328;28;19929;-73
2023/07/11 18:20:36;;;;;;;;;;;23.70;64.90;;;;;;8321291;28;19921;-72
2023/07/11 18:24:37;;;;;;;;;;;23.80;65.50;;;;;;8321528;28;19917;-73
2023/07/11 18:28:38;;;;;;;;;;;23.90;65.30;;;;;;8319905;28;19928;-72
2023/07/11 18:32:39;;;;;;;;;;;23.90;64.80;;;;;;8318446;28;19909;-73
2023/07/11 18:36:40;;;;;;;;;;;23.90;65.20;;;;;;8315567;28;20055;-74
2023/07/11 18:40:40;;;;;;;;;;;23.90;65.80;;;;;;8319530;28;19921;-71
2023/07/11 18:44:42;;;;;;;;;;;23.90;66.60;;;;;;8304459;28;20473;-73
2023/07/11 18:48:43;;;;;;;;;;;24.00;67.30;;;;;;8318530;28;19925;-73
2023/07/11 18:52:43;;;;;;;;;;;24.00;67.20;;;;;;8317717;28;19917;-73
2023/07/11 18:56:44;;;;;;;;;;;24.10;67.80;;;;;;8319944;28;19913;-74
2023/07/11 19:00:48;;;;;;;;;;;24.10;68.20;;;;;;8318963;28;20376;-73
2023/07/11 19:04:50;;;;;;;;;;;24.10;67.40;;;;;;8319104;28;20011;-73
2023/07/11 19:08:50;;;;;;;;;;;24.10;68.90;;;;;;8317941;28;19917;-73
2023/07/11 19:12:51;;;;;;;;;;;24.00;68.70;;;;;;8320353;28;19963;-73
2023/07/11 19:16:52;;;;;;;;;;;24.10;69.50;;;;;;8315429;28;19923;-73
2023/07/11 19:20:52;;;;;;;;;;;24.10;68.60;;;;;;8320183;28;19917;-72
2023/07/11 19:24:53;;;;;;;;;;;24.10;68.30;;;;;;8318991;28;19917;-74
2023/07/11 19:28:54;;;;;;;;;;;24.10;69.00;;;;;;8303950;28;20019;-72
2023/07/11 19:32:55;;;;;;;;;;;24.10;68.80;;;;;;8319978;28;19978;-75
2023/07/11 19:36:56;;;;;;;;;;;24.10;68.90;;;;;;8317389;28;19913;-73
2023/07/11 19:40:56;;;;;;;;;;;24.10;68.40;;;;;;8317673;28;19917;-73
2023/07/11 19:44:57;;;;;;;;;;;24.10;68.80;;;;;;8300972;28;19921;-73
2023/07/11 19:48:57;;;;;;;;;;;24.10;69.20;;;;;;8322699;28;19963;-72
2023/07/11 19:52:58;;;;;;;;;;;24.10;69.30;;;;;;8326973;28;19913;-73
2023/07/11 19:56:59;;;;;;;;;;;24.10;69.30;;;;;;8328364;28;19916;-70
2023/07/11 20:01:00;;;;;;;;;;;24.10;69.20;;;;;;8346397;28;19914;-71
2023/07/11 20:05:00;;;;;;;;;;;24.10;69.60;;;;;;8356812;28;19913;-70
2023/07/11 20:09:01;;;;;;;;;;;24.10;68.90;;;;;;8360306;28;20023;-73
2023/07/11 20:13:03;;;;;;;;;;;24.10;69.40;;;;;;8356894;28;19928;-74
2023/07/11 20:17:03;;;;;;;;;;;24.10;69.70;;;;;;8310261;28;19921;-74
2023/07/11 20:21:05;;;;;;;;;;;24.10;69.50;;;;;;8318240;28;20208;-71
2023/07/11 20:25:06;;;;;;;;;;;24.10;69.70;;;;;;8317681;28;19917;-71
2023/07/11 20:29:08;;;;;;;;;;;24.10;69.60;;;;;;8313466;28;19925;-71
2023/07/11 20:33:10;;;;;;;;;;;24.10;69.60;;;;;;8312308;28;19924;-70
2023/07/11 20:37:14;;;;;;;;;;;24.10;69.70;;;;;;8311171;28;20370;-71
2023/07/11 20:41:15;;;;;;;;;;;24.10;69.40;;;;;;8311223;28;19925;-73
2023/07/11 20:45:16;;;;;;;;;;;24.10;69.30;;;;;;8313077;28;19955;-72
2023/07/11 20:49:17;;;;;;;;;;;24.10;69.30;;;;;;8317148;28;19924;-74
2023/07/11 20:53:21;;;;;;;;;;;24.10;69.00;;;;;;8297299;28;19917;-74
2023/07/11 20:57:21;;;;;;;;;;;24.10;70.70;;;;;;8315915;28;19936;-74
2023/07/11 21:01:23;;;;;;;;;;;24.20;70.90;;;;;;8316231;28;20549;-73
2023/07/11 21:05:28;;;;;;;;;;;24.20;70.50;;;;;;8315499;28;19916;-74
2023/07/11 21:09:29;;;;;;;;;;;24.30;69.70;;;;;;8315507;28;19925;-74
2023/07/11 21:13:29;;;;;;;;;;;24.30;70.60;;;;;;8316234;28;19927;-73
2023/07/11 21:17:30;;;;;;;;;;;24.30;69.30;;;;;;8305166;28;19929;-75
2023/07/11 21:21:49;;;;;;;;;;;24.30;70.20;;;;;;8290809;28;19928;-75
2023/07/11 21:26:12;;;;;;;;;;;24.30;70.10;;;;;;8309868;28;19916;-73
2023/07/11 21:30:15;;;;;;;;;;;24.30;69.90;;;;;;8306141;28;19920;-73
2023/07/11 21:34:16;;;;;;;;;;;24.30;69.50;;;;;;8305157;28;19999;-74
2023/07/11 21:38:18;;;;;;;;;;;24.30;69.40;;;;;;8304557;28;19917;-74
2023/07/11 21:42:18;;;;;;;;;;;24.30;69.20;;;;;;8305477;28;19925;-73
2023/07/11 21:46:26;;;;;;;;;;;24.30;69.10;;;;;;8287733;28;19940;-73
2023/07/11 21:50:32;;;;;;;;;;;24.30;69.00;;;;;;8318665;28;19912;-74
2023/07/11 21:54:33;;;;;;;;;;;24.30;68.50;;;;;;8326235;28;19978;-73
2023/07/11 21:58:33;;;;;;;;;;;24.30;68.50;;;;;;8309029;28;20051;-73
2023/07/11 22:02:34;;;;;;;;;;;24.30;68.20;;;;;;8310020;28;19924;-73
2023/07/11 22:06:34;;;;;;;;;;;24.30;67.80;;;;;;8309401;28;20367;-73
2023/07/11 22:10:36;;;;;;;;;;;24.30;67.50;;;;;;8327087;28;19929;-73
2023/07/11 22:14:36;;;;;;;;;;;24.30;68.20;;;;;;8317218;28;19921;-73
2023/07/11 22:18:37;;;;;;;;;;;24.40;68.40;;;;;;8310640;28;19927;-72
2023/07/11 22:22:37;;;;;;;;;;;24.40;68.00;;;;;;8311795;28;19917;-75
2023/07/11 22:26:38;;;;;;;;;;;24.40;68.10;;;;;;8298656;28;20010;-75
2023/07/11 22:30:40;;;;;;;;;;;24.40;68.00;;;;;;8325523;28;20007;-73
2023/07/11 22:34:40;;;;;;;;;;;24.40;67.90;;;;;;8294234;28;19916;-73
2023/07/11 22:38:41;;;;;;;;;;;24.40;67.90;;;;;;8310845;28;20648;-73
2023/07/11 22:42:41;;;;;;;;;;;24.40;67.60;;;;;;8310907;28;20440;-72
2023/07/11 22:46:42;;;;;;;;;;;24.30;67.40;;;;;;8311026;28;19917;-73
2023/07/11 22:50:47;;;;;;;;;;;24.40;67.30;;;;;;8322720;28;19917;-73
2023/07/11 22:54:47;;;;;;;;;;;24.30;67.40;;;;;;8326255;28;19905;-74
2023/07/11 22:58:49;;;;;;;;;;;24.30;67.90;;;;;;8331575;28;20000;-71
2023/07/11 23:02:49;;;;;;;;;;;24.30;67.10;;;;;;8306629;28;19947;-72
2023/07/11 23:06:50;;;;;;;;;;;24.40;66.80;;;;;;8290137;28;19917;-74
2023/07/11 23:10:50;;;;;;;;;;;24.40;67.10;;;;;;8325522;28;19948;-71
2023/07/11 23:14:51;;;;;;;;;;;24.40;66.70;;;;;;8306146;28;20931;-72
2023/07/11 23:18:55;;;;;;;;;;;24.40;66.60;;;;;;8324623;28;19913;-72
2023/07/11 23:22:55;;;;;;;;;;;24.40;66.40;;;;;;8323320;28;19912;-73
2023/07/11 23:26:57;;;;;;;;;;;24.40;66.50;;;;;;8323331;28;20382;-73